Time;durP1;ratioP1;P1;durP2;ratioP2;P2;SDS_P1;SDS_P2;PMS_P1;PMS_P2;Temp;Humidity;BMP_temperature;BMP_pressure;BME280_temperature;BME280_humidity;BME280_pressure;Samples;Min_cycle;Max_cycle;Signal;HPM_P1;HPM_P2
2023/09/30 00:01:18;;;;;;;12.23;2.30;;;12.30;99.90;;;;;;5042775;28;20041;-65
2023/09/30 00:03:45;;;;;;;10.85;2.50;;;12.20;99.90;;;;;;5045149;28;20099;-66
2023/09/30 00:06:10;;;;;;;6.63;2.03;;;12.20;99.90;;;;;;5044440;28;20203;-66
2023/09/30 00:08:39;;;;;;;8.13;2.40;;;12.20;99.90;;;;;;5027435;28;20157;-66
2023/09/30 00:11:05;;;;;;;8.70;1.98;;;12.20;99.90;;;;;;5044905;28;20057;-66
2023/09/30 00:13:31;;;;;;;11.55;2.60;;;12.20;99.90;;;;;;5045171;28;20080;-66
2023/09/30 00:15:58;;;;;;;10.15;2.53;;;12.10;99.90;;;;;;5026415;28;20088;-66
2023/09/30 00:18:23;;;;;;;8.77;2.47;;;12.10;99.90;;;;;;5044975;28;20037;-66
2023/09/30 00:20:49;;;;;;;11.77;2.75;;;12.10;99.90;;;;;;5045312;28;20057;-66
2023/09/30 00:23:15;;;;;;;10.55;2.85;;;12.10;99.90;;;;;;5026423;28;20513;-66
2023/09/30 00:25:41;;;;;;;7.18;2.25;;;12.10;99.90;;;;;;5027532;28;20052;-66
2023/09/30 00:28:08;;;;;;;13.25;3.85;;;12.10;99.90;;;;;;5026510;28;20048;-66
2023/09/30 00:30:33;;;;;;;8.88;1.95;;;12.00;99.90;;;;;;5043487;28;20179;-66
2023/09/30 00:33:00;;;;;;;7.82;1.92;;;12.00;99.90;;;;;;5045991;28;20132;-66
2023/09/30 00:35:26;;;;;;;7.05;1.80;;;12.00;99.90;;;;;;5030736;28;20479;-66
2023/09/30 00:37:51;;;;;;;9.57;2.00;;;12.00;99.90;;;;;;5031279;28;20098;-66
2023/09/30 00:40:17;;;;;;;15.25;2.55;;;12.00;99.90;;;;;;5004985;28;20516;-66
2023/09/30 00:42:43;;;;;;;10.30;2.38;;;11.90;99.90;;;;;;5028486;28;20061;-66
2023/09/30 00:45:10;;;;;;;13.05;2.20;;;11.90;99.90;;;;;;5026900;28;20050;-66
2023/09/30 00:47:36;;;;;;;8.10;2.08;;;11.90;99.90;;;;;;5028541;28;20107;-66
2023/09/30 00:50:04;;;;;;;12.63;2.15;;;11.90;99.90;;;;;;5028564;28;20083;-66
2023/09/30 00:52:33;;;;;;;6.20;1.60;;;11.90;99.90;;;;;;5009517;28;20053;-67
2023/09/30 00:54:59;;;;;;;10.03;2.20;;;11.80;99.90;;;;;;5010044;28;20061;-66
2023/09/30 00:57:25;;;;;;;8.18;2.13;;;11.90;99.90;;;;;;5013247;28;20045;-66
2023/09/30 00:59:52;;;;;;;11.02;2.17;;;11.80;99.90;;;;;;5036910;28;20180;-66
2023/09/30 01:02:18;;;;;;;7.03;1.95;;;11.80;99.90;;;;;;5028480;28;20056;-66
2023/09/30 01:04:45;;;;;;;6.47;2.33;;;11.90;99.90;;;;;;5023052;28;20068;-66
2023/09/30 01:07:11;;;;;;;9.60;1.88;;;11.80;99.90;;;;;;5040792;28;20487;-66
2023/09/30 01:09:38;;;;;;;14.38;2.63;;;11.90;99.90;;;;;;5028220;28;20071;-67
2023/09/30 01:12:05;;;;;;;12.63;2.03;;;11.90;99.90;;;;;;5028316;28;20045;-66
2023/09/30 01:14:34;;;;;;;9.48;2.17;;;11.90;99.90;;;;;;5010493;28;20045;-66
2023/09/30 01:17:00;;;;;;;10.32;2.20;;;11.90;99.90;;;;;;5027482;28;20056;-66
2023/09/30 01:19:27;;;;;;;7.28;1.95;;;11.90;99.90;;;;;;5027092;28;20038;-66
2023/09/30 01:21:59;;;;;;;11.73;2.00;;;11.90;99.90;;;;;;5018407;28;20053;-66
2023/09/30 01:24:38;;;;;;;8.50;1.92;;;11.80;99.90;;;;;;5027498;28;20301;-66
2023/09/30 01:27:03;;;;;;;10.38;2.08;;;11.80;99.90;;;;;;5009553;28;20052;-66
2023/09/30 01:29:29;;;;;;;11.75;1.98;;;11.80;99.90;;;;;;5027173;28;20037;-65
2023/09/30 01:31:55;;;;;;;11.77;2.15;;;11.90;99.90;;;;;;5027559;28;20099;-66
2023/09/30 01:34:21;;;;;;;13.98;2.53;;;11.90;99.90;;;;;;5006422;28;20058;-66
2023/09/30 01:36:47;;;;;;;11.20;2.15;;;11.90;99.90;;;;;;5009320;28;20076;-66
2023/09/30 01:39:14;;;;;;;8.23;2.28;;;11.90;99.90;;;;;;5027819;28;20533;-66
2023/09/30 01:41:40;;;;;;;12.93;2.42;;;12.00;99.90;;;;;;5047677;28;20049;-66
2023/09/30 01:44:07;;;;;;;15.07;1.90;;;12.00;99.90;;;;;;5044642;28;20383;-66
2023/09/30 01:46:33;;;;;;;7.60;1.98;;;12.00;99.90;;;;;;5045271;28;20057;-66
2023/09/30 01:48:59;;;;;;;8.93;1.95;;;12.00;99.90;;;;;;5045958;28;20059;-66
2023/09/30 01:51:24;;;;;;;14.93;2.50;;;12.00;99.90;;;;;;5028623;28;20128;-66
2023/09/30 01:53:50;;;;;;;12.60;2.38;;;12.00;99.90;;;;;;5029466;28;20145;-66
2023/09/30 01:56:16;;;;;;;8.65;2.13;;;12.00;99.90;;;;;;5013508;28;20049;-66
2023/09/30 01:58:42;;;;;;;7.93;1.95;;;12.00;99.90;;;;;;5045474;28;20067;-66
2023/09/30 02:01:09;;;;;;;7.90;1.85;;;11.90;99.90;;;;;;5047252;28;20075;-66
2023/09/30 02:03:34;;;;;;;8.18;2.47;;;12.00;99.90;;;;;;5012062;28;20056;-65
2023/09/30 02:06:00;;;;;;;10.85;1.67;;;12.00;99.90;;;;;;5046950;28;20041;-66
2023/09/30 02:08:26;;;;;;;7.47;1.80;;;12.00;99.90;;;;;;5028499;28;20498;-66
2023/09/30 02:10:52;;;;;;;14.43;1.70;;;12.00;99.90;;;;;;5047110;28;20040;-66
2023/09/30 02:13:18;;;;;;;9.35;1.90;;;12.00;99.90;;;;;;5046546;28;20041;-66
2023/09/30 02:15:43;;;;;;;10.50;1.77;;;12.00;99.90;;;;;;5012743;28;20052;-66
2023/09/30 02:18:10;;;;;;;8.80;1.98;;;12.00;99.90;;;;;;5047162;28;20049;-66
2023/09/30 02:20:39;;;;;;;8.98;1.80;;;12.00;99.90;;;;;;5028900;28;20063;-66
2023/09/30 02:23:07;;;;;;;7.18;1.85;;;12.00;99.90;;;;;;5012320;28;20392;-66
2023/09/30 02:25:33;;;;;;;9.48;2.20;;;11.90;99.90;;;;;;5046185;28;20045;-66
2023/09/30 02:27:59;;;;;;;5.68;1.80;;;11.90;99.90;;;;;;5046939;28;20101;-66
2023/09/30 02:30:25;;;;;;;8.48;1.60;;;12.00;99.90;;;;;;5045732;28;20040;-66
2023/09/30 02:32:51;;;;;;;6.95;2.05;;;11.90;99.90;;;;;;5046306;28;20533;-66
2023/09/30 02:35:16;;;;;;;5.85;1.75;;;11.90;99.90;;;;;;5046303;28;20041;-66
2023/09/30 02:37:42;;;;;;;6.78;2.17;;;11.90;99.90;;;;;;5012343;28;20502;-66
2023/09/30 02:40:13;;;;;;;7.45;1.67;;;11.90;99.90;;;;;;5028321;28;20091;-66
2023/09/30 02:42:41;;;;;;;4.80;1.60;;;11.90;99.90;;;;;;5023946;28;20068;-66
2023/09/30 02:45:07;;;;;;;4.15;1.58;;;11.90;99.90;;;;;;5046699;28;20051;-66
2023/09/30 02:47:34;;;;;;;5.20;1.90;;;11.80;99.90;;;;;;5045645;28;20060;-66
2023/09/30 02:50:01;;;;;;;10.15;1.48;;;11.80;99.90;;;;;;5046360;28;20051;-66
2023/09/30 02:52:28;;;;;;;11.60;2.25;;;11.80;99.90;;;;;;5043150;28;20055;-66
2023/09/30 02:54:55;;;;;;;4.95;2.30;;;11.80;99.90;;;;;;5044291;28;20041;-66
2023/09/30 02:57:20;;;;;;;6.75;2.10;;;11.80;99.90;;;;;;5033562;28;20148;-66
2023/09/30 02:59:47;;;;;;;5.80;1.42;;;11.80;99.90;;;;;;5046479;28;20124;-66
2023/09/30 03:02:13;;;;;;;9.13;2.00;;;11.80;99.90;;;;;;5033323;28;20041;-65
2023/09/30 03:04:39;;;;;;;6.70;1.77;;;11.80;99.90;;;;;;5003196;28;20052;-66
2023/09/30 03:07:05;;;;;;;8.82;2.30;;;11.90;99.90;;;;;;5046527;28;20045;-66
2023/09/30 03:09:31;;;;;;;8.68;1.83;;;11.80;99.90;;;;;;5027208;28;20037;-66
2023/09/30 03:11:59;;;;;;;8.25;1.75;;;11.80;99.90;;;;;;5045982;28;20052;-66
2023/09/30 03:14:25;;;;;;;4.78;1.65;;;11.80;99.90;;;;;;5043351;28;20060;-66
2023/09/30 03:16:51;;;;;;;8.52;1.30;;;11.80;99.90;;;;;;5045382;28;20111;-66
2023/09/30 03:19:17;;;;;;;11.23;2.20;;;11.80;99.90;;;;;;5045516;28;20068;-66
2023/09/30 03:21:43;;;;;;;6.15;1.42;;;11.90;99.90;;;;;;5019477;28;20471;-66
2023/09/30 03:24:09;;;;;;;9.32;1.73;;;11.90;99.90;;;;;;5002044;28;20132;-66
2023/09/30 03:26:35;;;;;;;7.55;1.50;;;11.90;99.90;;;;;;5045415;28;20071;-66
2023/09/30 03:29:01;;;;;;;8.15;1.35;;;11.90;99.90;;;;;;5028260;28;20048;-66
2023/09/30 03:31:27;;;;;;;9.07;1.95;;;11.80;99.90;;;;;;5025712;28;20483;-66
2023/09/30 03:33:56;;;;;;;5.78;1.85;;;11.80;99.90;;;;;;5035846;28;20141;-66
2023/09/30 03:36:24;;;;;;;4.43;1.60;;;11.90;99.90;;;;;;5042544;28;20124;-66
2023/09/30 03:38:54;;;;;;;6.55;1.60;;;11.90;99.90;;;;;;5045673;28;20376;-66
2023/09/30 03:41:20;;;;;;;11.32;1.60;;;11.90;99.90;;;;;;5045259;28;20052;-66
2023/09/30 03:43:47;;;;;;;7.25;2.17;;;11.90;99.90;;;;;;5039808;28;20269;-66
2023/09/30 03:46:12;;;;;;;3.65;1.40;;;11.90;99.90;;;;;;5021675;28;20057;-66
2023/09/30 03:48:42;;;;;;;14.13;2.40;;;11.90;99.90;;;;;;5043594;28;20061;-66
2023/09/30 03:51:17;;;;;;;3.92;1.98;;;11.90;99.90;;;;;;5027683;28;20053;-66
2023/09/30 03:53:44;;;;;;;9.88;2.60;;;11.90;99.90;;;;;;5044666;28;20410;-66
2023/09/30 03:56:13;;;;;;;8.23;1.90;;;11.90;99.90;;;;;;5037790;28;20408;-66
2023/09/30 03:58:41;;;;;;;7.95;2.17;;;11.90;99.90;;;;;;5034178;28;20052;-66
2023/09/30 04:01:07;;;;;;;8.88;2.08;;;11.90;99.90;;;;;;5040834;28;20171;-66
2023/09/30 04:03:34;;;;;;;7.95;1.77;;;11.80;99.90;;;;;;5006955;28;20051;-66
2023/09/30 04:06:02;;;;;;;7.50;2.03;;;11.80;99.90;;;;;;5037558;28;20053;-66
2023/09/30 04:08:29;;;;;;;6.90;1.88;;;11.90;99.90;;;;;;5016373;28;20076;-66
2023/09/30 04:10:54;;;;;;;4.80;1.80;;;11.80;99.90;;;;;;5030934;28;20153;-66
2023/09/30 04:13:21;;;;;;;6.38;1.75;;;11.80;99.90;;;;;;5049252;28;20154;-66
2023/09/30 04:15:47;;;;;;;11.38;1.83;;;11.80;99.90;;;;;;5038906;28;20045;-65
2023/09/30 04:18:12;;;;;;;7.93;1.52;;;11.80;99.90;;;;;;5049077;28;20126;-66
2023/09/30 04:20:39;;;;;;;5.20;1.88;;;11.70;99.90;;;;;;5049036;28;20071;-66
2023/09/30 04:23:07;;;;;;;4.28;1.67;;;11.80;99.90;;;;;;5017176;28;20049;-65
2023/09/30 04:25:32;;;;;;;9.70;1.60;;;11.70;99.90;;;;;;5027025;28;20545;-65
2023/09/30 04:27:58;;;;;;;9.43;2.10;;;11.70;99.90;;;;;;5046409;28;20041;-66
2023/09/30 04:30:24;;;;;;;7.85;1.85;;;11.70;99.90;;;;;;5030755;28;20106;-66
2023/09/30 04:32:50;;;;;;;6.72;1.85;;;11.70;99.90;;;;;;5028965;28;20056;-66
2023/09/30 04:35:15;;;;;;;10.75;1.88;;;11.70;99.90;;;;;;5049138;28;20037;-66
2023/09/30 04:37:41;;;;;;;9.32;1.95;;;11.70;99.90;;;;;;5044455;28;20048;-66
2023/09/30 04:40:21;;;;;;;15.00;1.70;;;11.70;99.90;;;;;;5030011;28;20464;-66
2023/09/30 04:42:47;;;;;;;8.20;2.17;;;11.60;99.90;;;;;;5030433;28;20151;-66
2023/09/30 04:45:16;;;;;;;10.05;1.90;;;11.70;99.90;;;;;;5048323;28;20045;-66
2023/09/30 04:47:44;;;;;;;4.55;1.50;;;11.60;99.90;;;;;;5033343;28;20439;-66
2023/09/30 04:50:11;;;;;;;10.02;1.98;;;11.60;99.90;;;;;;5028896;28;20049;-67
2023/09/30 04:52:38;;;;;;;9.32;2.28;;;11.70;99.90;;;;;;5046837;28;20156;-66
2023/09/30 04:55:05;;;;;;;6.00;2.85;;;11.70;99.90;;;;;;5027648;28;20085;-66
2023/09/30 04:57:34;;;;;;;7.40;2.50;;;11.70;99.90;;;;;;5011430;28;20523;-66
2023/09/30 05:00:00;;;;;;;8.38;2.03;;;11.70;99.90;;;;;;5008546;28;20092;-66
2023/09/30 05:02:27;;;;;;;5.07;1.85;;;11.60;99.90;;;;;;5041910;28;20081;-66
2023/09/30 05:04:53;;;;;;;6.65;1.98;;;11.70;99.90;;;;;;5048338;28;20053;-66
2023/09/30 05:07:21;;;;;;;7.40;2.00;;;11.60;99.90;;;;;;5028990;28;20053;-65
2023/09/30 05:09:47;;;;;;;9.82;1.80;;;11.70;99.90;;;;;;5039815;28;20056;-66
2023/09/30 05:12:13;;;;;;;5.53;1.88;;;11.60;99.90;;;;;;5030181;28;20057;-66
2023/09/30 05:14:40;;;;;;;5.72;1.98;;;11.60;99.90;;;;;;5047791;28;20533;-66
2023/09/30 05:17:08;;;;;;;12.13;2.10;;;11.70;99.90;;;;;;5030101;28;20061;-66
2023/09/30 05:19:33;;;;;;;4.80;1.73;;;11.60;99.90;;;;;;5017881;28;20049;-66
2023/09/30 05:22:00;;;;;;;5.15;2.00;;;11.50;99.90;;;;;;5047441;28;20552;-65
2023/09/30 05:24:27;;;;;;;10.70;2.10;;;11.60;99.90;;;;;;5047856;28;20049;-66
2023/09/30 05:26:53;;;;;;;5.13;1.67;;;11.60;99.90;;;;;;5040409;28;20056;-66
2023/09/30 05:29:20;;;;;;;6.63;1.95;;;11.60;99.90;;;;;;5038677;28;20053;-65
2023/09/30 05:31:46;;;;;;;12.15;2.00;;;11.50;99.90;;;;;;5038842;28;20161;-65
2023/09/30 05:34:11;;;;;;;5.63;1.77;;;11.50;99.90;;;;;;5039439;28;20156;-66
2023/09/30 05:36:37;;;;;;;7.18;1.95;;;11.60;99.90;;;;;;5047242;28;20057;-66
2023/09/30 05:39:04;;;;;;;12.93;2.50;;;11.50;99.90;;;;;;5042548;28;20038;-66
2023/09/30 05:41:31;;;;;;;8.18;1.77;;;11.50;99.90;;;;;;5041935;28;20087;-66
2023/09/30 05:43:58;;;;;;;6.32;2.13;;;11.50;99.90;;;;;;5047268;28;20037;-66
2023/09/30 05:46:24;;;;;;;5.25;1.80;;;11.50;99.90;;;;;;5021115;28;20116;-66
2023/09/30 05:48:50;;;;;;;8.70;2.05;;;11.50;99.90;;;;;;5041008;28;20495;-66
2023/09/30 05:51:16;;;;;;;7.47;2.08;;;11.50;99.90;;;;;;5045795;28;20049;-66
2023/09/30 05:53:42;;;;;;;8.00;2.40;;;11.50;99.90;;;;;;5028985;28;20443;-66
2023/09/30 05:56:14;;;;;;;7.63;2.10;;;11.50;99.90;;;;;;5047106;28;20403;-66
2023/09/30 05:58:41;;;;;;;5.82;2.13;;;11.50;99.90;;;;;;5037020;28;20041;-66
2023/09/30 06:01:10;;;;;;;6.47;2.00;;;11.50;99.90;;;;;;5034449;28;20122;-66
2023/09/30 06:03:40;;;;;;;5.90;2.28;;;11.50;99.90;;;;;;5044059;28;20507;-66
2023/09/30 06:06:18;;;;;;;10.60;2.13;;;11.50;99.90;;;;;;5037927;28;20384;-66
2023/09/30 06:08:47;;;;;;;9.00;2.00;;;11.50;99.90;;;;;;5047075;28;20534;-66
2023/09/30 06:11:24;;;;;;;12.27;2.45;;;11.60;99.90;;;;;;5028912;28;20419;-66
2023/09/30 06:13:54;;;;;;;11.20;2.63;;;11.60;99.90;;;;;;5046747;28;20048;-66
2023/09/30 06:16:20;;;;;;;5.88;2.38;;;11.60;99.90;;;;;;5043118;28;20118;-66
2023/09/30 06:18:46;;;;;;;9.65;2.75;;;11.60;99.90;;;;;;5038206;28;20060;-65
2023/09/30 06:21:14;;;;;;;8.02;2.50;;;11.60;99.90;;;;;;5028596;28;20040;-66
2023/09/30 06:23:40;;;;;;;6.80;2.55;;;11.60;99.90;;;;;;5025026;28;20079;-66
2023/09/30 06:26:06;;;;;;;7.25;2.53;;;11.70;99.90;;;;;;5046321;28;20045;-66
2023/09/30 06:28:33;;;;;;;9.15;2.65;;;11.70;99.90;;;;;;5021171;28;20061;-66
2023/09/30 06:30:59;;;;;;;4.95;2.58;;;11.70;99.90;;;;;;5028550;28;20058;-66
2023/09/30 06:33:29;;;;;;;11.05;3.05;;;11.80;99.90;;;;;;5015466;28;20044;-66
2023/09/30 06:35:54;;;;;;;8.93;2.70;;;11.80;99.90;;;;;;5033498;28;20519;-66
2023/09/30 06:38:21;;;;;;;9.88;2.92;;;11.90;99.90;;;;;;5040127;28;20052;-66
2023/09/30 06:40:47;;;;;;;7.53;2.72;;;11.90;99.90;;;;;;5037509;28;20056;-66
2023/09/30 06:43:16;;;;;;;7.15;2.40;;;12.00;99.90;;;;;;5046245;28;20430;-67
2023/09/30 06:45:43;;;;;;;9.98;2.40;;;12.10;99.90;;;;;;5018507;28;20081;-66
2023/09/30 06:48:15;;;;;;;5.13;2.58;;;12.10;99.90;;;;;;5037183;28;20049;-65
2023/09/30 06:50:48;;;;;;;10.30;3.08;;;12.20;99.90;;;;;;5046498;28;20056;-66
2023/09/30 06:53:18;;;;;;;10.02;2.85;;;12.30;99.90;;;;;;4981349;28;20053;-66
2023/09/30 06:55:45;;;;;;;9.52;2.88;;;12.40;99.90;;;;;;5046149;28;20501;-66
2023/09/30 06:58:13;;;;;;;14.57;3.10;;;12.40;99.90;;;;;;5045952;28;20045;-66
2023/09/30 07:00:41;;;;;;;10.20;3.30;;;12.50;99.90;;;;;;5037567;28;20515;-66
2023/09/30 07:03:09;;;;;;;15.93;3.20;;;12.50;99.90;;;;;;5020449;28;20053;-66
2023/09/30 07:05:36;;;;;;;7.45;2.85;;;12.60;99.90;;;;;;5044746;28;20155;-66
2023/09/30 07:08:02;;;;;;;10.93;3.08;;;12.70;99.90;;;;;;5037290;28;20143;-66
2023/09/30 07:10:31;;;;;;;9.07;2.85;;;12.80;99.90;;;;;;5035736;28;20563;-66
2023/09/30 07:12:57;;;;;;;14.82;3.15;;;12.90;99.90;;;;;;5013634;28;20064;-65
2023/09/30 07:15:23;;;;;;;12.02;3.20;;;12.90;99.90;;;;;;5027961;28;20045;-66
2023/09/30 07:17:48;;;;;;;12.05;3.40;;;13.00;99.90;;;;;;5045426;28;20045;-66
2023/09/30 07:20:15;;;;;;;9.20;2.78;;;13.10;99.90;;;;;;5027277;28;20079;-66
2023/09/30 07:22:41;;;;;;;6.93;2.60;;;13.10;99.90;;;;;;5039869;28;20099;-66
2023/09/30 07:25:08;;;;;;;9.57;2.70;;;13.30;99.90;;;;;;5045804;28;20433;-66
2023/09/30 07:27:34;;;;;;;8.13;3.03;;;13.30;99.90;;;;;;5027471;28;20044;-65
2023/09/30 07:29:59;;;;;;;8.40;3.17;;;13.40;99.90;;;;;;5013098;28;20424;-65
2023/09/30 07:32:25;;;;;;;11.13;3.08;;;13.40;99.90;;;;;;5024811;28;20510;-66
2023/09/30 07:34:52;;;;;;;13.77;2.80;;;13.50;99.90;;;;;;5025267;28;20119;-66
2023/09/30 07:37:18;;;;;;;9.10;2.88;;;13.50;99.90;;;;;;5006331;28;20049;-66
2023/09/30 07:39:45;;;;;;;13.02;3.55;;;13.70;99.90;;;;;;5007765;28;20045;-66
2023/09/30 07:42:11;;;;;;;11.57;3.05;;;13.80;99.90;;;;;;5007407;28;20495;-66
2023/09/30 07:44:37;;;;;;;6.60;2.80;;;13.80;99.90;;;;;;5011193;28;20127;-65
2023/09/30 07:47:06;;;;;;;7.32;2.90;;;13.90;99.90;;;;;;5042851;28;20119;-66
2023/09/30 07:49:32;;;;;;;7.82;2.78;;;14.00;99.90;;;;;;5044933;28;20507;-66
2023/09/30 07:51:58;;;;;;;13.27;3.50;;;14.20;99.90;;;;;;5011503;28;20059;-67
2023/09/30 07:54:24;;;;;;;15.23;2.90;;;14.30;99.90;;;;;;5044711;28;20041;-66
2023/09/30 07:56:49;;;;;;;13.00;3.30;;;14.40;99.90;;;;;;5044890;28;20639;-65
2023/09/30 07:59:15;;;;;;;8.65;2.80;;;14.60;99.90;;;;;;5026567;28;20399;-65
2023/09/30 08:01:41;;;;;;;12.85;3.05;;;14.60;99.90;;;;;;5036903;28;20048;-66
2023/09/30 08:04:07;;;;;;;10.68;3.10;;;14.80;99.90;;;;;;5026280;28;20127;-66
2023/09/30 08:06:33;;;;;;;18.45;2.83;;;14.80;99.90;;;;;;5025749;28;20041;-66
2023/09/30 08:08:58;;;;;;;9.23;2.70;;;15.00;99.90;;;;;;5044526;28;20112;-66
2023/09/30 08:11:27;;;;;;;4.60;2.35;;;15.10;99.90;;;;;;5010551;28;20531;-66
2023/09/30 08:13:54;;;;;;;6.30;2.90;;;15.20;99.90;;;;;;5044829;28;20056;-65
2023/09/30 08:16:19;;;;;;;12.18;3.15;;;15.30;99.90;;;;;;5025657;28;20048;-65
2023/09/30 08:18:45;;;;;;;5.88;2.47;;;15.40;99.90;;;;;;5045021;28;20053;-66
2023/09/30 08:21:11;;;;;;;8.77;2.88;;;15.50;99.90;;;;;;5042977;28;20134;-66
2023/09/30 08:23:38;;;;;;;8.13;2.08;;;15.70;99.90;;;;;;5026639;28;20049;-66
2023/09/30 08:26:07;;;;;;;11.52;3.13;;;15.70;99.90;;;;;;5027212;28;20534;-65
2023/09/30 08:28:34;;;;;;;16.30;3.23;;;15.80;99.90;;;;;;5027064;28;20037;-65
2023/09/30 08:31:04;;;;;;;10.10;2.50;;;16.00;99.90;;;;;;5045198;28;20057;-66
2023/09/30 08:33:30;;;;;;;14.20;2.53;;;16.00;99.90;;;;;;5043811;28;20086;-66
2023/09/30 08:36:01;;;;;;;12.73;2.75;;;16.10;99.90;;;;;;5027067;28;20431;-66
2023/09/30 08:38:27;;;;;;;8.77;2.15;;;16.20;99.90;;;;;;5044251;28;20116;-65
2023/09/30 08:40:54;;;;;;;9.43;2.30;;;16.30;99.90;;;;;;5044610;28;20135;-66
2023/09/30 08:43:27;;;;;;;7.70;2.25;;;16.30;99.90;;;;;;5044284;28;20040;-66
2023/09/30 08:45:54;;;;;;;10.13;2.45;;;16.40;99.90;;;;;;5040816;28;20041;-66
2023/09/30 08:48:22;;;;;;;11.07;1.50;;;16.60;99.90;;;;;;5009552;28;20044;-66
2023/09/30 08:50:50;;;;;;;5.97;2.03;;;16.60;99.90;;;;;;5010039;28;20044;-66
2023/09/30 08:53:16;;;;;;;13.32;2.45;;;16.60;99.90;;;;;;5045530;28;20060;-66
2023/09/30 08:55:44;;;;;;;9.80;2.25;;;16.70;99.90;;;;;;5047865;28;20082;-66
2023/09/30 08:58:12;;;;;;;10.13;2.42;;;16.70;99.90;;;;;;5048139;28;20049;-66
2023/09/30 09:00:38;;;;;;;5.68;1.88;;;16.80;99.90;;;;;;5029788;28;20182;-66
2023/09/30 09:03:08;;;;;;;6.35;1.67;;;16.70;99.90;;;;;;5047862;28;20498;-65
2023/09/30 09:05:34;;;;;;;8.02;2.00;;;16.80;99.90;;;;;;5028632;28;20049;-66
2023/09/30 09:07:59;;;;;;;13.75;1.88;;;16.90;99.90;;;;;;5047908;28;20041;-66
2023/09/30 09:10:25;;;;;;;6.50;1.92;;;16.90;99.90;;;;;;5047896;28;20127;-66
2023/09/30 09:12:56;;;;;;;6.30;1.85;;;17.00;99.90;;;;;;5047977;28;20049;-65
2023/09/30 09:15:28;;;;;;;12.20;2.85;;;17.00;99.90;;;;;;5047256;28;20056;-66
2023/09/30 09:17:54;;;;;;;10.20;1.92;;;17.10;99.90;;;;;;5047952;28;20049;-66
2023/09/30 09:20:22;;;;;;;8.40;2.15;;;17.10;99.90;;;;;;5029405;28;20410;-66
2023/09/30 09:22:53;;;;;;;9.23;1.80;;;17.10;99.90;;;;;;5047884;28;20040;-66
2023/09/30 09:25:22;;;;;;;9.77;2.38;;;17.20;99.90;;;;;;5047470;28;20496;-66
2023/09/30 09:27:50;;;;;;;11.57;2.38;;;17.20;99.90;;;;;;5047437;28;20044;-66
2023/09/30 09:30:24;;;;;;;15.90;2.30;;;17.30;99.90;;;;;;5029480;28;20053;-66
2023/09/30 09:33:03;;;;;;;14.52;1.73;;;17.40;99.90;;;;;;5046871;28;20049;-66
2023/09/30 09:35:32;;;;;;;10.35;2.30;;;17.40;99.90;;;;;;5028902;28;20520;-66
2023/09/30 09:38:06;;;;;;;3.67;1.42;;;17.50;99.90;;;;;;5047119;28;20041;-66
2023/09/30 09:40:37;;;;;;;7.22;2.03;;;17.50;99.90;;;;;;5029211;28;20520;-66
2023/09/30 09:43:05;;;;;;;8.35;1.55;;;17.60;99.90;;;;;;5029840;28;20049;-65
2023/09/30 09:45:34;;;;;;;6.30;1.77;;;17.70;99.90;;;;;;5046559;28;20048;-66
2023/09/30 09:48:01;;;;;;;8.35;1.50;;;17.70;99.90;;;;;;5043534;28;20049;-66
2023/09/30 09:50:27;;;;;;;4.93;1.20;;;17.80;99.90;;;;;;5046914;28;20167;-66
2023/09/30 09:52:55;;;;;;;9.13;1.50;;;17.90;99.90;;;;;;5047251;28;20506;-66
2023/09/30 09:55:25;;;;;;;10.05;2.15;;;17.90;99.90;;;;;;5046256;28;20487;-65
2023/09/30 09:57:51;;;;;;;4.32;1.48;;;18.00;99.90;;;;;;5028502;28;20061;-66
2023/09/30 10:00:20;;;;;;;7.32;1.92;;;18.10;99.90;;;;;;5008775;28;20503;-66
2023/09/30 10:02:47;;;;;;;6.47;1.77;;;18.10;99.90;;;;;;5043755;28;20051;-66
2023/09/30 10:05:13;;;;;;;8.75;2.13;;;18.20;99.90;;;;;;5045773;28;20053;-66
2023/09/30 10:08:02;;;;;;;7.93;2.10;;;18.20;99.90;;;;;;5027265;28;20068;-66
2023/09/30 10:10:30;;;;;;;10.82;2.00;;;18.30;99.90;;;;;;5043591;28;20502;-66
2023/09/30 10:12:56;;;;;;;7.45;1.73;;;18.30;99.90;;;;;;5038281;28;20049;-66
2023/09/30 10:15:24;;;;;;;10.23;2.30;;;18.30;99.90;;;;;;5028922;28;20044;-66
2023/09/30 10:18:04;;;;;;;5.82;1.58;;;18.40;99.90;;;;;;5025113;28;20049;-66
2023/09/30 10:20:37;;;;;;;7.20;1.50;;;18.50;99.90;;;;;;5012050;28;20049;-66
2023/09/30 10:23:26;;;;;;;13.80;1.70;;;18.50;99.90;;;;;;5046240;28;20572;-66
2023/09/30 10:25:57;;;;;;;8.80;1.67;;;18.60;99.90;;;;;;5045063;28;20049;-66
2023/09/30 10:28:36;;;;;;;3.70;1.30;;;18.60;99.90;;;;;;5046756;28;20053;-65
2023/09/30 10:31:10;;;;;;;6.07;1.75;;;18.60;99.90;;;;;;5023334;28;20052;-66
2023/09/30 10:33:36;;;;;;;2.42;1.13;;;18.70;99.90;;;;;;5045911;28;20049;-66
2023/09/30 10:36:03;;;;;;;4.70;1.85;;;18.70;95.90;;;;;;5045950;28;20091;-66
2023/09/30 10:38:34;;;;;;;6.07;1.42;;;18.60;96.70;;;;;;5045887;28;20080;-63
2023/09/30 10:41:02;;;;;;;5.45;1.65;;;18.50;99.80;;;;;;5027425;28;20057;-66
2023/09/30 10:43:39;;;;;;;8.02;1.33;;;18.40;97.50;;;;;;5045526;28;20051;-66
2023/09/30 10:46:26;;;;;;;9.68;1.95;;;18.40;98.40;;;;;;5044423;28;20735;-66
2023/09/30 10:48:57;;;;;;;3.25;1.10;;;18.30;95.30;;;;;;5042589;28;20105;-66
2023/09/30 10:51:23;;;;;;;8.68;1.60;;;18.20;95.50;;;;;;5044063;28;20116;-66
2023/09/30 10:53:56;;;;;;;4.22;1.42;;;18.00;95.40;;;;;;5045218;28;20155;-66
2023/09/30 10:56:23;;;;;;;9.70;1.60;;;17.90;99.30;;;;;;5038001;28;20033;-66
2023/09/30 10:58:49;;;;;;;14.68;1.58;;;17.80;98.00;;;;;;5044436;28;20044;-66
2023/09/30 11:01:20;;;;;;;10.70;1.60;;;17.80;99.90;;;;;;5047503;28;20510;-66
2023/09/30 11:03:47;;;;;;;7.03;1.50;;;17.90;99.90;;;;;;5045398;28;20498;-66
2023/09/30 11:06:19;;;;;;;9.50;1.58;;;17.90;99.90;;;;;;5045505;28;20052;-66
2023/09/30 11:09:15;;;;;;;10.68;1.35;;;18.10;99.90;;;;;;5044457;28;20146;-66
2023/09/30 11:11:52;;;;;;;10.15;1.77;;;18.20;99.90;;;;;;5012779;28;20069;-66
2023/09/30 11:14:18;;;;;;;10.35;2.58;;;18.50;99.90;;;;;;5029074;28;20049;-66
2023/09/30 11:16:45;;;;;;;7.07;1.45;;;18.60;96.20;;;;;;5025837;28;20051;-66
2023/09/30 11:19:12;;;;;;;9.93;1.48;;;18.80;98.40;;;;;;5026664;28;20049;-66
2023/09/30 11:21:39;;;;;;;4.65;1.10;;;18.90;97.30;;;;;;5044570;28;20051;-66
2023/09/30 11:24:06;;;;;;;6.65;1.00;;;19.00;91.70;;;;;;5045616;28;20052;-66
2023/09/30 11:26:34;;;;;;;3.13;1.00;;;19.20;93.50;;;;;;5026830;28;20112;-66
2023/09/30 11:29:11;;;;;;;6.55;1.15;;;19.30;88.20;;;;;;5045424;28;20182;-66
2023/09/30 11:31:41;;;;;;;9.85;1.67;;;19.40;93.30;;;;;;5046442;28;20036;-66
2023/09/30 11:34:07;;;;;;;;;;;19.50;75.80;;;;;;5045913;28;20068;-67
2023/09/30 11:36:40;;;;;;;6.47;1.42;;;19.50;73.90;;;;;;5044558;28;19924;-66
2023/09/30 11:39:08;;;;;;;7.40;1.38;;;19.50;74.20;;;;;;5027533;28;20471;-66
2023/09/30 11:41:39;;;;;;;6.55;1.40;;;19.40;59.90;;;;;;5044640;28;20132;-66
2023/09/30 11:44:12;;;;;;;6.90;1.52;;;19.40;56.20;;;;;;5043399;28;20056;-67
2023/09/30 11:46:55;;;;;;;6.40;1.55;;;19.50;54.50;;;;;;5044486;28;20434;-66
2023/09/30 11:49:28;;;;;;;9.15;2.28;;;19.50;44.40;;;;;;5045784;28;20080;-66
2023/09/30 11:51:55;;;;;;;5.25;1.67;;;19.60;40.30;;;;;;5043280;28;20521;-65
2023/09/30 11:54:22;;;;;;;6.88;1.60;;;19.60;20.40;;;;;;5045230;28;20112;-66
2023/09/30 11:56:50;;;;;;;6.72;1.33;;;19.60;34.30;;;;;;5044386;28;20521;-66
2023/09/30 11:59:19;;;;;;;6.13;1.58;;;19.70;34.50;;;;;;5045702;28;20487;-67
2023/09/30 12:01:46;;;;;;;6.85;1.73;;;19.70;22.40;;;;;;5029543;28;20044;-66
2023/09/30 12:04:17;;;;;;;6.35;1.88;;;19.60;20.00;;;;;;5010805;28;20060;-66
2023/09/30 12:06:43;;;;;;;3.87;1.37;;;19.40;10.20;;;;;;5044803;28;20045;-66
2023/09/30 12:09:13;;;;;;;5.47;1.52;;;19.20;15.20;;;;;;5045140;28;20646;-66
2023/09/30 12:11:39;;;;;;;4.38;1.05;;;19.10;20.60;;;;;;5026595;28;20053;-66
2023/09/30 12:14:06;;;;;;;2.78;0.90;;;19.00;24.70;;;;;;5044742;28;20107;-66
2023/09/30 12:16:31;;;;;;;3.90;1.10;;;18.90;21.50;;;;;;5045095;28;20466;-67
2023/09/30 12:18:57;;;;;;;3.42;1.00;;;18.90;28.80;;;;;;5044613;28;20073;-66
2023/09/30 12:21:23;;;;;;;6.93;1.25;;;18.80;25.20;;;;;;5043556;28;20134;-66
2023/09/30 12:23:49;;;;;;;3.25;0.98;;;18.70;26.70;;;;;;5026835;28;20057;-66
2023/09/30 12:26:17;;;;;;;4.70;1.40;;;18.70;25.40;;;;;;5044662;28;20537;-66
2023/09/30 12:28:43;;;;;;;4.78;1.25;;;18.50;27.40;;;;;;5045051;28;20037;-66
2023/09/30 12:31:10;;;;;;;5.25;1.25;;;18.50;29.60;;;;;;5048733;28;20128;-66
2023/09/30 12:33:36;;;;;;;2.92;0.90;;;18.40;33.60;;;;;;5048909;28;20041;-66
2023/09/30 12:36:02;;;;;;;4.47;1.38;;;18.40;38.30;;;;;;5013364;28;20517;-67
2023/09/30 12:38:28;;;;;;;3.42;1.23;;;18.40;37.80;;;;;;5048278;28;20056;-67
2023/09/30 12:40:58;;;;;;;4.38;0.95;;;18.30;23.60;;;;;;5030350;28;20150;-66
2023/09/30 12:43:24;;;;;;;5.95;1.52;;;18.20;30.40;;;;;;5048440;28;20064;-66
2023/09/30 12:45:50;;;;;;;3.78;1.15;;;18.20;33.50;;;;;;5047768;28;20058;-66